createdAt,value
2022-08-25T00:02:03.134Z,100266.09
2022-08-25T00:04:31.525Z,100274.63
2022-08-25T00:07:03.120Z,100260.00
2022-08-25T00:09:31.641Z,100274.34
2022-08-25T00:11:59.080Z,100272.53
2022-08-25T00:14:34.388Z,100265.53
2022-08-25T00:17:02.064Z,100251.22
2022-08-25T00:19:33.408Z,100213.75
2022-08-25T00:22:01.548Z,100246.34
2022-08-25T00:24:28.708Z,100227.59
2022-08-25T00:26:57.505Z,100260.50
2022-08-25T00:29:26.488Z,100249.28
2022-08-25T00:31:54.009Z,100216.13
2022-08-25T00:34:26.401Z,100256.75
2022-08-25T00:36:53.934Z,100260.28
2022-08-25T00:39:23.160Z,100254.38
2022-08-25T00:41:52.171Z,100251.38
2022-08-25T00:44:19.381Z,100244.94
2022-08-25T00:46:52.607Z,100253.44
2022-08-25T00:49:24.820Z,100238.69
2022-08-25T00:51:59.191Z,100251.53
2022-08-25T00:54:31.516Z,100260.69
2022-08-25T00:57:00.803Z,100254.38
2022-08-25T00:59:28.295Z,100260.25
2022-08-25T01:01:56.302Z,100217.44
2022-08-25T01:04:24.047Z,100252.97
2022-08-25T01:06:51.297Z,100203.06
2022-08-25T01:09:20.013Z,100245.72
2022-08-25T01:11:47.620Z,100239.03
2022-08-25T01:14:18.884Z,100260.59
2022-08-25T01:16:46.433Z,100249.31
2022-08-25T01:19:17.836Z,100252.94
2022-08-25T01:21:53.009Z,100255.63
2022-08-25T01:24:31.491Z,100242.34
2022-08-25T01:26:58.779Z,100254.94
2022-08-25T01:29:25.765Z,100247.16
2022-08-25T01:32:00.270Z,100248.84
2022-08-25T01:34:29.904Z,100223.47
2022-08-25T01:36:59.092Z,100245.06
2022-08-25T01:39:27.640Z,100236.72
2022-08-25T01:42:06.187Z,100243.25
2022-08-25T01:44:35.962Z,100242.63
2022-08-25T01:47:04.101Z,100246.00
2022-08-25T01:49:30.873Z,100222.97
2022-08-25T01:52:05.493Z,100237.13
2022-08-25T01:54:32.606Z,100191.63
2022-08-25T01:56:59.608Z,100204.97
2022-08-25T01:59:27.484Z,100225.38
2022-08-25T02:01:57.465Z,100221.00
2022-08-25T02:04:29.566Z,100211.06
2022-08-25T02:06:56.352Z,100235.69
2022-08-25T02:09:23.273Z,100182.22
2022-08-25T02:11:50.956Z,100226.72
2022-08-25T02:14:19.957Z,100250.34
2022-08-25T02:16:50.977Z,100210.88
2022-08-25T02:19:19.444Z,100242.06
2022-08-25T02:21:46.856Z,100248.81
2022-08-25T02:24:14.198Z,100210.19
2022-08-25T02:26:41.420Z,100230.22
2022-08-25T02:29:08.921Z,100243.97
2022-08-25T02:31:36.540Z,100252.34
2022-08-25T02:34:03.909Z,100253.75
2022-08-25T02:36:32.220Z,100247.31
2022-08-25T02:38:59.503Z,100253.84
2022-08-25T02:41:30.909Z,100244.34
2022-08-25T02:43:58.133Z,100224.72
2022-08-25T02:46:25.183Z,100226.63
2022-08-25T02:48:53.415Z,100234.16
2022-08-25T02:51:22.570Z,100222.00
2022-08-25T02:53:50.008Z,100230.41
2022-08-25T02:56:18.749Z,100212.31
2022-08-25T02:58:46.425Z,100213.97
2022-08-25T03:01:13.871Z,100218.03
2022-08-25T03:03:42.189Z,100220.00
2022-08-25T03:06:12.080Z,100222.31
2022-08-25T03:08:39.779Z,100220.22
2022-08-25T03:11:06.981Z,100214.59
2022-08-25T03:13:34.320Z,100218.81
2022-08-25T03:16:03.006Z,100214.69
2022-08-25T03:18:30.525Z,100204.47
2022-08-25T03:20:57.805Z,100197.31
2022-08-25T03:23:24.811Z,100200.00
2022-08-25T03:26:12.469Z,100194.47
2022-08-25T03:28:39.204Z,100217.41
2022-08-25T03:31:06.266Z,100211.53
2022-08-25T03:33:33.419Z,100212.97
2022-08-25T03:36:00.426Z,100179.13
2022-08-25T03:38:28.008Z,100221.50
2022-08-25T03:40:54.801Z,100182.53
2022-08-25T03:43:22.421Z,100234.09
2022-08-25T03:45:49.297Z,100221.19
2022-08-25T03:48:17.793Z,100231.09
2022-08-25T03:50:50.610Z,100234.97
2022-08-25T03:53:19.814Z,100208.13
2022-08-25T03:55:46.914Z,100213.53
2022-08-25T03:58:14.248Z,100212.94
2022-08-25T04:00:41.004Z,100239.59
2022-08-25T04:03:07.815Z,100217.41
2022-08-25T04:05:35.425Z,100241.13
2022-08-25T04:08:02.355Z,100221.03
2022-08-25T04:10:29.900Z,100230.31
2022-08-25T04:12:58.419Z,100238.50
2022-08-25T04:15:30.138Z,100239.34
2022-08-25T04:17:59.001Z,100238.28
2022-08-25T04:20:25.942Z,100228.31
2022-08-25T04:22:52.795Z,100229.06
2022-08-25T04:25:19.716Z,100183.56
2022-08-25T04:27:46.471Z,100239.22
2022-08-25T04:30:13.808Z,100220.81
2022-08-25T04:32:40.631Z,100230.59
2022-08-25T04:35:07.803Z,100248.50
2022-08-25T04:37:34.928Z,100229.78
2022-08-25T04:40:02.198Z,100227.72
2022-08-25T04:42:29.008Z,100222.72
2022-08-25T04:47:46.237Z,100229.41
2022-08-25T04:50:13.071Z,100244.78
2022-08-25T04:52:39.845Z,100236.13
2022-08-25T04:55:07.504Z,100238.94
2022-08-25T04:57:34.505Z,100227.63
2022-08-25T05:00:02.357Z,100243.47
2022-08-25T05:02:29.157Z,100226.25
2022-08-25T05:04:57.282Z,100226.06
2022-08-25T05:07:24.108Z,100247.91
2022-08-25T05:09:53.240Z,100234.78
2022-08-25T05:12:20.855Z,100222.69
2022-08-25T05:14:48.512Z,100251.75
2022-08-25T05:17:18.021Z,100217.03
2022-08-25T05:19:44.919Z,100227.66
2022-08-25T05:22:11.755Z,100238.72
2022-08-25T05:24:38.625Z,100168.66
2022-08-25T05:27:05.591Z,100249.31
2022-08-25T05:29:32.371Z,100237.94
2022-08-25T05:31:59.346Z,100245.06
2022-08-25T05:34:26.152Z,100231.66
2022-08-25T05:36:53.094Z,100239.94
2022-08-25T05:39:20.029Z,100223.59
2022-08-25T05:41:46.853Z,100234.28
2022-08-25T05:44:15.948Z,100231.66
2022-08-25T05:46:44.932Z,100234.22
2022-08-25T05:49:11.737Z,100231.63
2022-08-25T05:51:38.580Z,100197.22
2022-08-25T05:54:05.900Z,100207.75
2022-08-25T05:56:32.639Z,100241.47
2022-08-25T05:59:00.551Z,100229.34
2022-08-25T06:01:48.017Z,100255.25
2022-08-25T06:04:17.947Z,100218.50
2022-08-25T06:06:44.765Z,100256.84
2022-08-25T06:09:15.380Z,100248.16
2022-08-25T06:11:42.993Z,100261.50
2022-08-25T06:14:10.695Z,100256.88
2022-08-25T06:16:39.220Z,100255.38
2022-08-25T06:19:07.535Z,100245.53
2022-08-25T06:21:34.272Z,100271.25
2022-08-25T06:24:01.826Z,100250.78
2022-08-25T06:26:28.581Z,100252.88
2022-08-25T06:28:55.401Z,100230.16
2022-08-25T06:31:22.696Z,100224.47
2022-08-25T06:33:50.721Z,100266.31
2022-08-25T06:36:17.827Z,100256.00
2022-08-25T06:38:44.881Z,100264.78
2022-08-25T06:41:12.785Z,100259.59
2022-08-25T06:43:47.421Z,100243.34
2022-08-25T06:46:19.634Z,100254.75
2022-08-25T06:48:46.453Z,100238.19
2022-08-25T06:51:15.571Z,100248.78
2022-08-25T06:53:44.086Z,100254.94
2022-08-25T06:56:11.872Z,100254.53
2022-08-25T06:58:39.340Z,100241.88
2022-08-25T07:01:15.881Z,100245.78
2022-08-25T07:03:47.545Z,100244.03
2022-08-25T07:06:18.310Z,100243.13
2022-08-25T07:08:46.552Z,100185.75
2022-08-25T07:11:16.187Z,100208.19
2022-08-25T07:13:44.242Z,100238.94
2022-08-25T07:16:15.595Z,100222.34
2022-08-25T07:18:44.161Z,100252.59
2022-08-25T07:21:12.450Z,100225.97
2022-08-25T07:23:40.930Z,100237.22
2022-08-25T07:26:27.090Z,100199.44
2022-08-25T07:28:58.897Z,100228.69
2022-08-25T07:31:27.118Z,100229.69
2022-08-25T07:34:15.056Z,100251.69
2022-08-25T07:36:43.687Z,100242.59
2022-08-25T07:39:10.642Z,100248.59
2022-08-25T07:41:39.989Z,100248.91
2022-08-25T07:44:08.605Z,100251.84
2022-08-25T07:46:35.423Z,100248.81
2022-08-25T07:49:02.345Z,100243.97
2022-08-25T07:51:29.166Z,100236.75
2022-08-25T07:53:56.054Z,100219.53
2022-08-25T07:56:23.638Z,100227.31
2022-08-25T07:58:50.748Z,100236.72
2022-08-25T08:01:19.886Z,100247.28
2022-08-25T08:03:50.850Z,100238.56
2022-08-25T08:06:21.630Z,100248.72
2022-08-25T08:08:50.424Z,100229.50
2022-08-25T08:11:23.965Z,100244.66
2022-08-25T08:13:51.935Z,100225.91
2022-08-25T08:16:20.452Z,100233.72
2022-08-25T08:18:48.166Z,100245.81
2022-08-25T08:21:22.651Z,100227.63
2022-08-25T08:23:50.584Z,100232.78
2022-08-25T08:26:18.202Z,100227.88
2022-08-25T08:28:51.891Z,100222.41
2022-08-25T08:31:24.744Z,100229.22
2022-08-25T08:33:55.017Z,100205.91
2022-08-25T08:36:25.473Z,100219.78
2022-08-25T08:38:52.949Z,100217.41
2022-08-25T08:45:11.512Z,100223.16
2022-08-25T08:47:52.987Z,100188.66
2022-08-25T08:50:50.759Z,100196.78
2022-08-25T08:53:27.617Z,100210.97
2022-08-25T08:56:06.941Z,100205.91
2022-08-25T08:59:06.101Z,100194.44
2022-08-25T09:01:54.106Z,100191.69
2022-08-25T09:04:37.629Z,100201.78
2022-08-25T09:07:11.739Z,100209.22
2022-08-25T09:09:42.159Z,100194.75
2022-08-25T09:12:41.365Z,100217.06
2022-08-25T09:16:00.057Z,100206.63
2022-08-25T09:18:51.189Z,100204.97
2022-08-25T09:21:36.032Z,100197.47
2022-08-25T09:24:30.702Z,100156.41
2022-08-25T09:27:15.068Z,100198.06
2022-08-25T09:30:01.771Z,100187.59
2022-08-25T09:32:36.117Z,100186.50
2022-08-25T09:35:04.912Z,100170.47
2022-08-25T09:37:31.713Z,100161.09
2022-08-25T09:39:59.242Z,100149.31
2022-08-25T09:42:48.203Z,100166.00
2022-08-25T09:45:17.387Z,100159.38
2022-08-25T09:47:46.058Z,100163.44
2022-08-25T09:50:20.201Z,100082.28
2022-08-25T09:52:46.985Z,100136.31
2022-08-25T09:55:29.607Z,100155.28
2022-08-25T09:57:59.631Z,100139.09
2022-08-25T10:00:30.621Z,100149.41
2022-08-25T10:03:22.852Z,100146.69
2022-08-25T10:06:04.256Z,100119.06
2022-08-25T10:08:55.651Z,100126.19
2022-08-25T10:11:33.405Z,100145.13
2022-08-25T10:14:26.396Z,100140.53
2022-08-25T10:16:54.625Z,100136.47
2022-08-25T10:19:30.535Z,100122.44
2022-08-25T10:22:07.916Z,100119.25
2022-08-25T10:24:35.226Z,100112.63
2022-08-25T10:27:17.369Z,100124.97
2022-08-25T10:30:14.968Z,100126.84
2022-08-25T10:33:15.611Z,100109.00
2022-08-25T10:36:06.700Z,100115.00
2022-08-25T10:38:36.236Z,100107.88
2022-08-25T10:41:44.612Z,100096.94
2022-08-25T10:44:39.028Z,100094.03
2022-08-25T10:47:29.938Z,100096.25
2022-08-25T10:50:05.429Z,100090.28
2022-08-25T10:53:05.295Z,100097.72
2022-08-25T10:55:47.322Z,100085.22
2022-08-25T10:58:35.392Z,100086.03
2022-08-25T11:01:19.223Z,100044.59
2022-08-25T11:04:07.496Z,100064.94
2022-08-25T11:06:56.651Z,100066.50
2022-08-25T11:09:33.306Z,100065.78
2022-08-25T11:12:10.021Z,100068.03
2022-08-25T11:14:43.050Z,100067.63
2022-08-25T11:17:29.583Z,100055.69
2022-08-25T11:20:03.587Z,100044.97
2022-08-25T11:22:40.621Z,100038.09
2022-08-25T11:25:12.828Z,100048.13
2022-08-25T11:28:20.671Z,100039.25
2022-08-25T11:30:51.284Z,100029.53
2022-08-25T11:33:19.718Z,100049.00
2022-08-25T11:35:57.098Z,100041.66
2022-08-25T11:38:36.091Z,100034.31
2022-08-25T11:41:11.425Z,100032.78
2022-08-25T11:43:55.056Z,100015.53
2022-08-25T11:46:40.164Z,100023.31
2022-08-25T11:49:27.680Z,100019.19
2022-08-25T11:51:55.682Z,100012.25
2022-08-25T11:54:35.668Z,100006.13
2022-08-25T11:57:06.558Z,99978.25
2022-08-25T11:59:54.330Z,100015.94
2022-08-25T12:02:39.148Z,100004.31
2022-08-25T12:05:11.250Z,99998.34
2022-08-25T12:08:24.275Z,100007.72
2022-08-25T12:10:55.337Z,100007.25
2022-08-25T12:13:38.616Z,99993.81
2022-08-25T12:16:05.976Z,99998.09
2022-08-25T12:18:32.696Z,100005.91
2022-08-25T12:21:00.174Z,99995.03
2022-08-25T12:23:50.407Z,99987.59
2022-08-25T12:26:31.827Z,99996.91
2022-08-25T12:29:26.616Z,99995.25
2022-08-25T12:32:03.174Z,99991.06
2022-08-25T12:34:40.887Z,99994.84
2022-08-25T12:37:25.317Z,99989.38
2022-08-25T12:39:54.535Z,99988.94
2022-08-25T12:42:45.060Z,99987.03
2022-08-25T12:45:24.143Z,99986.88
2022-08-25T12:47:53.092Z,99989.78
2022-08-25T12:50:50.395Z,99985.72
2022-08-25T12:53:34.102Z,99968.81
2022-08-25T12:56:06.182Z,99957.91
2022-08-25T12:58:59.869Z,99965.06
2022-08-25T13:01:55.872Z,99963.72
2022-08-25T13:04:46.313Z,99968.53
2022-08-25T13:07:34.795Z,99963.84
2022-08-25T13:10:24.312Z,99964.31
2022-08-25T13:13:16.912Z,99961.38
2022-08-25T13:15:57.921Z,99952.72
2022-08-25T13:18:31.591Z,99951.31
2022-08-25T13:21:27.738Z,99945.06
2022-08-25T13:26:48.962Z,99933.34
2022-08-25T13:29:37.413Z,99924.25
2022-08-25T13:32:14.383Z,99932.91
2022-08-25T13:34:43.689Z,99934.38
2022-08-25T13:37:30.409Z,99933.59
2022-08-25T13:40:32.736Z,99931.44
2022-08-25T13:43:07.974Z,99928.38
2022-08-25T13:45:42.983Z,99931.81
2022-08-25T13:48:21.147Z,99926.88
2022-08-25T13:50:52.085Z,99884.69
2022-08-25T13:53:26.346Z,99907.50
2022-08-25T13:55:58.084Z,99911.34
2022-08-25T13:58:38.709Z,99883.72
2022-08-25T14:01:46.929Z,99910.25
2022-08-25T14:04:51.464Z,99899.75
2022-08-25T14:07:22.739Z,99904.59
2022-08-25T14:09:54.346Z,99902.50
2022-08-25T14:12:31.339Z,99902.13
2022-08-25T14:15:03.636Z,99902.53
2022-08-25T14:17:38.343Z,99891.66
2022-08-25T14:20:28.974Z,99885.34
2022-08-25T14:22:59.288Z,99900.25
2022-08-25T14:25:28.493Z,99888.28
2022-08-25T14:28:08.240Z,99879.69
2022-08-25T14:30:39.589Z,99896.66
2022-08-25T14:33:10.849Z,99875.47
2022-08-25T14:35:38.166Z,99868.56
2022-08-25T14:38:12.447Z,99895.38
2022-08-25T14:40:39.864Z,99851.97
2022-08-25T14:43:09.613Z,99881.97
2022-08-25T14:45:40.108Z,99884.03
2022-08-25T14:48:14.457Z,99874.84
2022-08-25T14:50:42.262Z,99878.19
2022-08-25T14:53:11.691Z,99895.19
2022-08-25T14:55:39.829Z,99882.41
2022-08-25T14:58:09.637Z,99888.28
2022-08-25T15:00:44.607Z,99876.31
2022-08-25T15:03:21.719Z,99860.56
2022-08-25T15:05:48.460Z,99865.91
2022-08-25T15:08:35.543Z,99856.47
2022-08-25T15:11:02.275Z,99883.00
2022-08-25T15:13:36.740Z,99881.72
2022-08-25T15:16:04.483Z,99869.41
2022-08-25T15:18:31.316Z,99872.25
2022-08-25T15:20:58.328Z,99797.94
2022-08-25T15:23:25.139Z,99891.00
2022-08-25T15:25:56.036Z,99872.81
2022-08-25T15:28:22.926Z,99874.94
2022-08-25T15:30:50.787Z,99868.22
2022-08-25T15:33:18.007Z,99876.84
2022-08-25T15:35:45.637Z,99873.19
2022-08-25T15:38:12.629Z,99856.84
2022-08-25T15:40:39.535Z,99842.66
2022-08-25T15:43:07.034Z,99886.28
2022-08-25T15:45:36.208Z,99861.72
2022-08-25T15:48:03.456Z,99877.88
2022-08-25T15:50:30.448Z,99863.22
2022-08-25T15:52:57.920Z,99866.75
2022-08-25T15:55:24.917Z,99847.44
2022-08-25T15:57:51.957Z,99869.84
2022-08-25T16:00:19.245Z,99849.00
2022-08-25T16:02:48.466Z,99864.16
2022-08-25T16:05:16.200Z,99859.81
2022-08-25T16:07:51.530Z,99849.31
2022-08-25T16:10:18.858Z,99844.59
2022-08-25T16:12:46.152Z,99853.38
2022-08-25T16:15:13.184Z,99857.13
2022-08-25T16:17:40.510Z,99840.28
2022-08-25T16:20:08.264Z,99836.75
2022-08-25T16:22:40.432Z,99864.50
2022-08-25T16:25:07.767Z,99851.75
2022-08-25T16:27:38.937Z,99828.53
2022-08-25T16:30:08.004Z,99837.25
2022-08-25T16:32:35.088Z,99842.44
2022-08-25T16:35:04.215Z,99843.03
2022-08-25T16:37:33.826Z,99826.41
2022-08-25T16:40:01.481Z,99849.81
2022-08-25T16:42:28.936Z,99852.06
2022-08-25T16:44:55.759Z,99821.28
2022-08-25T16:47:26.870Z,99802.94
2022-08-25T16:49:54.329Z,99839.00
2022-08-25T16:52:40.674Z,99842.69
2022-08-25T16:55:13.802Z,99842.34
2022-08-25T16:57:45.361Z,99844.91
2022-08-25T17:00:18.702Z,99805.81
2022-08-25T17:02:46.086Z,99844.88
2022-08-25T17:05:14.515Z,99844.44
2022-08-25T17:07:41.790Z,99849.13
2022-08-25T17:10:12.894Z,99848.66
2022-08-25T17:12:40.417Z,99839.75
2022-08-25T17:15:07.696Z,99819.84
2022-08-25T17:17:37.251Z,99812.53
2022-08-25T17:20:05.003Z,99790.63
2022-08-25T17:22:31.884Z,99809.75
2022-08-25T17:25:00.697Z,99831.59
2022-08-25T17:27:28.388Z,99845.47
2022-08-25T17:29:55.950Z,99846.41
2022-08-25T17:32:30.174Z,99829.78
2022-08-25T17:34:58.116Z,99850.25
2022-08-25T17:37:25.319Z,99842.28
2022-08-25T17:40:02.579Z,99849.19
2022-08-25T17:42:30.137Z,99823.81
2022-08-25T17:44:57.562Z,99840.06
2022-08-25T17:47:24.269Z,99840.91
2022-08-25T17:49:51.020Z,99834.53
2022-08-25T17:52:17.868Z,99846.19
2022-08-25T17:54:48.671Z,99839.84
2022-08-25T17:57:16.239Z,99857.06
2022-08-25T17:59:43.045Z,99834.69
2022-08-25T18:02:10.095Z,99851.56
2022-08-25T18:04:38.098Z,99844.72
2022-08-25T18:07:05.496Z,99837.66
2022-08-25T18:09:32.301Z,99845.09
2022-08-25T18:11:59.209Z,99844.28
2022-08-25T18:14:25.980Z,99823.72
2022-08-25T18:16:53.805Z,99858.47
2022-08-25T18:19:21.142Z,99860.69
2022-08-25T18:21:48.249Z,99854.09
2022-08-25T18:24:14.986Z,99867.13
2022-08-25T18:26:42.394Z,99866.78
2022-08-25T18:29:12.922Z,99867.47
2022-08-25T18:31:42.333Z,99853.00
2022-08-25T18:34:11.348Z,99866.69
2022-08-25T18:36:38.814Z,99853.34
2022-08-25T18:39:25.871Z,99881.19
2022-08-25T18:41:52.608Z,99857.44
2022-08-25T18:44:19.923Z,99873.25
2022-08-25T18:46:47.032Z,99811.88
2022-08-25T18:49:18.428Z,99869.38
2022-08-25T18:51:48.109Z,99880.34
2022-08-25T18:54:22.692Z,99879.00
2022-08-25T18:56:50.461Z,99836.50
2022-08-25T18:59:19.226Z,99823.00
2022-08-25T19:01:46.562Z,99857.94
2022-08-25T19:04:15.325Z,99837.00
2022-08-25T19:06:43.932Z,99867.38
2022-08-25T19:09:11.149Z,99833.97
2022-08-25T19:11:38.398Z,99858.91
2022-08-25T19:14:12.164Z,99851.34
2022-08-25T19:16:42.546Z,99806.81
2022-08-25T19:19:13.311Z,99864.16
2022-08-25T19:21:43.016Z,99831.78
2022-08-25T19:24:12.459Z,99863.13
2022-08-25T19:26:39.892Z,99867.38
2022-08-25T19:29:16.348Z,99843.22
2022-08-25T19:31:45.902Z,99857.72
2022-08-25T19:34:18.791Z,99867.00
2022-08-25T19:36:47.399Z,99829.00
2022-08-25T19:39:15.334Z,99840.34
2022-08-25T19:41:43.963Z,99866.31
2022-08-25T19:44:14.712Z,99859.38
2022-08-25T19:46:44.424Z,99863.78
2022-08-25T19:49:15.988Z,99862.41
2022-08-25T19:51:50.640Z,99832.72
2022-08-25T19:54:22.728Z,99865.59
2022-08-25T19:56:54.885Z,99856.97
2022-08-25T19:59:25.180Z,99823.53
2022-08-25T20:01:52.145Z,99858.66
2022-08-25T20:04:19.275Z,99861.00
2022-08-25T20:06:48.390Z,99840.91
2022-08-25T20:09:36.009Z,99832.63
2022-08-25T20:12:04.192Z,99846.59
2022-08-25T20:14:35.239Z,99761.69
2022-08-25T20:17:03.516Z,99845.59
2022-08-25T20:19:41.755Z,99827.34
2022-08-25T20:22:11.280Z,99853.31
2022-08-25T20:24:51.031Z,99826.09
2022-08-25T20:27:26.433Z,99757.56
2022-08-25T20:29:56.137Z,99834.16
2022-08-25T20:32:24.660Z,99848.03
2022-08-25T20:34:58.292Z,99778.31
2022-08-25T20:37:26.975Z,99831.47
2022-08-25T20:39:54.483Z,99830.09
2022-08-25T20:42:21.417Z,99829.06
2022-08-25T20:44:48.235Z,99842.72
2022-08-25T20:47:15.585Z,99843.84
2022-08-25T20:49:43.995Z,99830.34
2022-08-25T20:52:12.072Z,99853.97
2022-08-25T20:54:40.714Z,99855.44
2022-08-25T20:57:08.119Z,99844.44
2022-08-25T20:59:35.040Z,99851.88
2022-08-25T21:02:02.261Z,99849.97
2022-08-25T21:04:31.069Z,99845.38
2022-08-25T21:07:00.388Z,99854.19
2022-08-25T21:09:28.252Z,99831.38
2022-08-25T21:11:57.250Z,99825.84
2022-08-25T21:14:25.064Z,99830.22
2022-08-25T21:16:54.148Z,99841.06
2022-08-25T21:19:26.790Z,99849.44
2022-08-25T21:21:59.893Z,99814.31
2022-08-25T21:24:28.179Z,99845.84
2022-08-25T21:26:56.489Z,99848.53
2022-08-25T21:29:25.966Z,99848.34
2022-08-25T21:31:56.492Z,99842.91
2022-08-25T21:34:23.347Z,99838.09
2022-08-25T21:36:50.133Z,99819.88
2022-08-25T21:39:17.405Z,99833.84
2022-08-25T21:41:45.753Z,99853.03
2022-08-25T21:44:13.910Z,99829.09
2022-08-25T21:46:41.574Z,99831.53
2022-08-25T21:49:20.506Z,99826.47
2022-08-25T21:51:47.268Z,99833.31
2022-08-25T21:54:18.439Z,99845.69
2022-08-25T21:56:58.525Z,99836.16
2022-08-25T21:59:28.515Z,99839.00
2022-08-25T22:02:02.043Z,99831.84
2022-08-25T22:04:29.306Z,99840.69
2022-08-25T22:06:58.362Z,99831.00
2022-08-25T22:09:28.321Z,99837.91
2022-08-25T22:11:55.731Z,99835.06
2022-08-25T22:14:24.343Z,99827.94
2022-08-25T22:16:54.027Z,99827.25
2022-08-25T22:19:21.581Z,99818.13
2022-08-25T22:21:50.955Z,99818.81
2022-08-25T22:24:18.449Z,99818.88
2022-08-25T22:26:47.696Z,99813.06
2022-08-25T22:29:25.328Z,99756.44
2022-08-25T22:31:59.444Z,99802.78
2022-08-25T22:34:32.735Z,99796.13
2022-08-25T22:37:01.307Z,99802.22
2022-08-25T22:39:28.906Z,99734.03
2022-08-25T22:41:55.873Z,99784.56
2022-08-25T22:44:23.301Z,99792.47
2022-08-25T22:46:50.316Z,99799.97
2022-08-25T22:49:17.659Z,99793.34
2022-08-25T22:51:44.426Z,99786.13
2022-08-25T22:54:15.172Z,99765.84
2022-08-25T22:56:42.776Z,99774.16
2022-08-25T22:59:12.583Z,99789.50
2022-08-25T23:01:40.212Z,99785.03
2022-08-25T23:04:07.749Z,99749.72
2022-08-25T23:06:35.004Z,99794.81
2022-08-25T23:09:04.335Z,99747.06
2022-08-25T23:11:31.111Z,99760.31
2022-08-25T23:14:00.543Z,99783.31
2022-08-25T23:16:28.497Z,99773.75
2022-08-25T23:18:55.359Z,99763.53
2022-08-25T23:21:40.905Z,99765.91
2022-08-25T23:24:10.703Z,99779.97
2022-08-25T23:26:37.852Z,99781.81
2022-08-25T23:29:18.533Z,99780.03
2022-08-25T23:31:47.923Z,99779.91
2022-08-25T23:34:16.148Z,99731.72
2022-08-25T23:36:43.532Z,99755.78
2022-08-25T23:39:11.439Z,99767.13
2022-08-25T23:41:38.957Z,99769.81
2022-08-25T23:44:06.404Z,99769.81
2022-08-25T23:46:36.350Z,99778.34
2022-08-25T23:49:05.809Z,99776.63
2022-08-25T23:51:37.205Z,99757.19
2022-08-25T23:54:09.531Z,99773.38
2022-08-25T23:56:44.514Z,99760.53
2022-08-25T23:59:13.186Z,99775.63
